Main page
METAR-TAF:

METAR-TAF

Airports :

Aydın Airport

Aydın, Turkey

latitude: 37-48-54N, longitude: 27-53-21E, elevation: 31 m

Current weather observation

The report was made 40 minutes ago, at 09:50 UTC
Wind 10 kt from the West, varying between West/Southwest and West/Northwest
Temperature 33°C
Humidity 39%
Pressure 1002 hPa
Visibility 10 km or more
no clouds below 1500 m and no cumulonimbus

METAR: LTBD 180950Z 27010KT 240V300 CAVOK 33/17 Q1002

Time: 13:30 (10:30 UTC)

Forecast

The report was made 2 hours and 50 minutes ago, at 07:40 UTC
Forecast valid from 18 at 09 UTC to 18 at 18 UTC
Wind 12 kt from the West
Visibility 10 km or more
Scattered clouds at a height of 3000 ft

TAF: LTBD 180740Z 1809/1818 28012KT 9999 SCT030

Weather observations and forecasts of more than 4000 airports (METAR and TAF reports).

The available stations are represented by yellow and red dots on the map.

Hover mouse over dot to see the name of the station.

Then click to see weather observations and forecasts.

To change the map : click on the green buttons with a black cross to zoom in, on the green button with a dash to zoom out, or on the green arrows for adjacent maps.


METAR-TAF: